Time;durP1;ratioP1;P1;durP2;ratioP2;P2;SDS_P1;SDS_P2;PMS_P1;PMS_P2;Temp;Humidity;BMP_temperature;BMP_pressure;BME280_temperature;BME280_humidity;BME280_pressure;Samples;Min_cycle;Max_cycle;Signal;HPM_P1;HPM_P2
2021/11/04 00:03:05;;;;;;;27.20;14.43;;;;;;;6.73;89.66;99069.22;8717517;33;20282;-75
2021/11/04 00:08:08;;;;;;;27.33;14.07;;;;;;;6.78;89.57;99072.34;8681878;33;20267;-75
2021/11/04 00:13:11;;;;;;;29.27;14.10;;;;;;;6.78;89.66;99073.19;8717506;33;20225;-76
2021/11/04 00:18:16;;;;;;;28.83;15.60;;;;;;;6.82;89.72;99060.41;8717347;33;20629;-75
2021/11/04 00:23:20;;;;;;;27.80;15.23;;;;;;;6.77;89.50;99055.47;8718104;33;20152;-76
2021/11/04 00:28:23;;;;;;;30.00;14.13;;;;;;;6.76;89.52;99064.47;8717236;33;20618;-76
2021/11/04 00:33:27;;;;;;;28.55;14.50;;;;;;;6.69;89.32;99074.00;8716756;33;20183;-76
2021/11/04 00:38:30;;;;;;;28.67;14.90;;;;;;;6.66;89.52;99079.56;8718649;33;20814;-76
2021/11/04 00:43:33;;;;;;;34.00;16.25;;;;;;;6.63;89.56;99074.50;8719451;33;20188;-75
2021/11/04 00:48:38;;;;;;;32.95;16.05;;;;;;;6.71;89.53;99068.50;8717537;33;20256;-76
2021/11/04 00:53:41;;;;;;;30.20;14.68;;;;;;;6.75;89.62;99065.44;8715802;33;20447;-75
2021/11/04 00:58:45;;;;;;;31.25;15.95;;;;;;;6.76;89.51;99051.13;8691918;33;20439;-76
2021/11/04 01:03:52;;;;;;;30.45;15.93;;;;;;;6.79;89.63;99063.34;8716073;33;20207;-76
2021/11/04 01:08:55;;;;;;;29.63;15.55;;;;;;;6.79;89.57;99064.19;8716607;33;20240;-76
2021/11/04 01:13:58;;;;;;;28.00;14.25;;;;;;;6.80;89.62;99065.03;8715477;33;20217;-76
2021/11/04 01:19:02;;;;;;;29.85;15.50;;;;;;;6.79;89.92;99072.19;8715790;33;20198;-76
2021/11/04 01:24:06;;;;;;;32.00;16.08;;;;;;;6.81;89.46;99069.41;8715218;33;20326;-76
2021/11/04 01:29:09;;;;;;;31.00;16.05;;;;;;;6.79;89.27;99066.03;8715769;33;20451;-76
2021/11/04 01:34:14;;;;;;;30.02;15.18;;;;;;;6.79;89.60;99063.34;8657294;33;20650;-75
2021/11/04 01:39:17;;;;;;;30.05;15.23;;;;;;;6.82;89.51;99049.75;8656850;33;20183;-76
2021/11/04 01:44:21;;;;;;;29.95;15.20;;;;;;;6.83;89.58;99046.97;8657322;33;21495;-76
2021/11/04 01:49:25;;;;;;;32.83;15.90;;;;;;;6.83;89.47;99032.78;8657272;33;20177;-76
2021/11/04 01:54:28;;;;;;;32.40;16.50;;;;;;;6.83;89.54;99032.78;8657185;33;20149;-76
2021/11/04 01:59:31;;;;;;;35.25;17.67;;;;;;;6.77;89.50;99027.94;8657148;33;20251;-76
2021/11/04 02:04:42;;;;;;;43.45;17.48;;;;;;;6.69;89.10;99020.63;8657030;33;20287;-76
2021/11/04 02:09:53;;;;;;;35.63;17.73;;;;;;;6.74;89.41;99026.38;8658327;33;20184;-76
2021/11/04 02:15:00;;;;;;;34.92;16.25;;;;;;;6.71;89.45;99015.13;8657447;33;20149;-76
2021/11/04 02:20:06;;;;;;;28.92;15.80;;;;;;;6.66;89.31;99023.53;8657903;33;21085;-76
2021/11/04 02:25:15;;;;;;;38.90;18.73;;;;;;;6.71;89.61;99015.97;8703410;33;20253;-75
2021/11/04 02:30:20;;;;;;;38.50;16.33;;;;;;;6.76;89.50;99020.94;8714727;33;20182;-75
2021/11/04 02:35:24;;;;;;;30.85;15.25;;;;;;;6.72;89.41;99009.69;8715612;33;20553;-76
2021/11/04 02:40:29;;;;;;;34.10;17.05;;;;;;;6.63;89.22;99016.63;8715437;33;21895;-76
2021/11/04 02:45:33;;;;;;;34.50;16.38;;;;;;;6.53;89.43;99009.59;8714204;33;20230;-76
2021/11/04 02:50:37;;;;;;;33.85;16.00;;;;;;;6.61;89.45;99013.28;8714454;33;20218;-76
2021/11/04 02:55:42;;;;;;;33.55;16.50;;;;;;;6.53;89.31;99017.59;8714069;33;20247;-76
2021/11/04 03:00:48;;;;;;;35.05;16.58;;;;;;;6.49;89.48;99011.66;8713982;33;20216;-75
2021/11/04 03:05:52;;;;;;;30.20;15.02;;;;;;;6.56;89.23;99044.84;8714166;33;20191;-75
2021/11/04 03:10:56;;;;;;;30.90;14.95;;;;;;;6.60;89.06;99040.06;8728159;33;20180;-75
2021/11/04 03:16:03;;;;;;;32.53;15.55;;;;;;;6.60;89.39;99043.59;8721372;33;20465;-75
2021/11/04 03:21:07;;;;;;;34.13;14.93;;;;;;;6.59;89.15;99033.06;8742038;33;20449;-77
2021/11/04 03:26:12;;;;;;;31.88;14.95;;;;;;;6.38;89.03;99041.91;8726001;33;20893;-77
2021/11/04 03:31:17;;;;;;;30.65;16.13;;;;;;;6.32;89.23;99041.59;8745999;33;20512;-76
2021/11/04 03:36:22;;;;;;;32.13;14.90;;;;;;;6.36;89.14;99033.22;8693465;33;20229;-77
2021/11/04 03:41:28;;;;;;;29.65;15.70;;;;;;;6.22;88.90;99046.00;8740807;33;20266;-77
2021/11/04 03:46:31;;;;;;;30.23;14.55;;;;;;;6.36;89.05;99046.53;8717956;33;20627;-77
2021/11/04 03:51:35;;;;;;;34.30;14.20;;;;;;;6.36;88.95;99053.69;8718315;33;20255;-77
2021/11/04 03:56:40;;;;;;;38.97;14.75;;;;;;;6.23;88.84;99061.03;8718591;33;20271;-76
2021/11/04 04:01:43;;;;;;;46.22;16.50;;;;;;;6.23;89.03;99061.88;8636156;33;22047;-77
2021/11/04 04:06:52;;;;;;;46.75;15.43;;;;;;;5.92;89.99;99063.56;8658803;33;20145;-76
2021/11/04 04:11:57;;;;;;;32.75;13.80;;;;;;;6.21;89.35;99070.97;8660561;33;20238;-77
2021/11/04 04:17:00;;;;;;;47.15;15.93;;;;;;;6.28;88.81;99073.03;8659886;33;20241;-77
2021/11/04 04:22:04;;;;;;;42.58;15.90;;;;;;;6.21;89.38;99085.16;8658249;33;20141;-76
2021/11/04 04:27:08;;;;;;;37.75;14.93;;;;;;;6.33;89.19;99092.13;8659962;33;20255;-77
2021/11/04 04:32:12;;;;;;;32.70;12.85;;;;;;;6.32;89.15;99092.25;8660465;33;20198;-77
2021/11/04 04:37:15;;;;;;;42.75;15.05;;;;;;;6.21;89.28;99087.81;8663548;33;20501;-77
2021/11/04 04:42:20;;;;;;;33.33;15.23;;;;;;;6.08;89.35;99097.81;8662889;33;21067;-78
2021/11/04 04:47:23;;;;;;;34.10;15.00;;;;;;;6.24;89.43;99098.22;8673150;33;20225;-77
2021/11/04 04:52:26;;;;;;;31.33;15.60;;;;;;;6.27;89.35;99103.31;8664228;33;20208;-77
2021/11/04 04:57:30;;;;;;;33.08;14.68;;;;;;;6.29;89.31;99108.53;8661035;33;20222;-77
2021/11/04 05:02:33;;;;;;;33.05;14.95;;;;;;;6.24;88.88;99105.38;8665217;33;20742;-77
2021/11/04 05:07:37;;;;;;;42.58;17.88;;;;;;;6.21;89.34;99106.50;8661312;33;20176;-77
2021/11/04 05:12:44;;;;;;;38.90;17.77;;;;;;;6.29;89.29;99098.69;8660408;33;20930;-77
2021/11/04 05:17:47;;;;;;;37.78;18.10;;;;;;;6.26;89.46;99098.97;8660522;33;20964;-77
2021/11/04 05:22:50;;;;;;;39.05;18.00;;;;;;;6.14;89.51;99106.16;8661001;33;21099;-76
2021/11/04 05:27:55;;;;;;;46.17;18.88;;;;;;;6.18;89.50;99109.41;8651057;33;21819;-76
2021/11/04 05:32:58;;;;;;;42.85;18.70;;;;;;;6.18;89.42;99115.59;8660684;33;20184;-78
2021/11/04 05:38:01;;;;;;;43.30;18.13;;;;;;;6.26;89.44;99114.97;8661017;33;20470;-77
2021/11/04 05:43:06;;;;;;;41.72;19.55;;;;;;;6.24;89.36;99102.72;8659491;33;20180;-77
2021/11/04 05:48:09;;;;;;;42.65;19.42;;;;;;;6.27;89.41;99108.63;8659864;33;20137;-76
2021/11/04 05:53:12;;;;;;;41.45;17.52;;;;;;;6.28;89.37;99105.03;8657708;33;20180;-77
2021/11/04 05:58:17;;;;;;;38.53;17.10;;;;;;;6.31;89.45;99114.59;8658931;33;20335;-76
2021/11/04 06:03:20;;;;;;;40.10;18.67;;;;;;;6.23;89.15;99101.03;8659800;33;20253;-76
2021/11/04 06:08:23;;;;;;;37.70;17.08;;;;;;;6.21;89.42;99100.31;8660220;33;20169;-77
2021/11/04 06:13:27;;;;;;;38.72;16.55;;;;;;;6.17;89.07;99111.25;8656494;33;20231;-76
2021/11/04 06:18:30;;;;;;;32.72;16.33;;;;;;;6.21;89.42;99105.66;8658878;33;21008;-76
2021/11/04 06:23:33;;;;;;;41.22;18.42;;;;;;;6.17;89.37;99097.03;8657789;33;20474;-76
2021/11/04 06:28:38;;;;;;;37.90;17.00;;;;;;;6.17;89.46;99094.38;8656652;33;21225;-77
2021/11/04 06:33:40;;;;;;;39.17;17.20;;;;;;;6.21;89.64;99101.16;8657365;33;20279;-76
2021/11/04 06:38:46;;;;;;;49.25;18.10;;;;;;;6.09;89.65;99110.19;8657815;33;20190;-76
2021/11/04 06:43:50;;;;;;;47.97;20.67;;;;;;;6.19;89.16;99113.75;8657624;33;20188;-76
2021/11/04 06:49:00;;;;;;;57.65;20.65;;;;;;;6.22;89.68;99118.84;8715320;33;20460;-76
2021/11/04 06:54:05;;;;;;;66.07;21.92;;;;;;;6.22;89.50;99118.84;8716789;33;20180;-75
2021/11/04 06:59:18;;;;;;;64.55;22.60;;;;;;;6.24;89.61;99119.56;8720054;33;20660;-77
2021/11/04 07:04:31;;;;;;;75.35;24.02;;;;;;;6.20;89.64;99125.28;8695302;33;20859;-76
2021/11/04 07:09:40;;;;;;;52.78;16.55;;;;;;;6.13;89.96;99136.44;8720396;33;20171;-76
2021/11/04 07:14:45;;;;;;;58.25;20.45;;;;;;;6.33;89.73;99134.78;8720140;33;20244;-75
2021/11/04 07:19:48;;;;;;;65.15;23.95;;;;;;;6.35;89.84;99134.69;8719957;33;20202;-75
2021/11/04 07:25:03;;;;;;;43.15;19.45;;;;;;;6.40;89.88;99138.66;8719384;33;20194;-75
2021/11/04 07:30:11;;;;;;;66.75;26.92;;;;;;;6.37;89.68;99138.91;8719382;33;20182;-75
2021/11/04 07:35:21;;;;;;;54.28;22.05;;;;;;;6.37;89.75;99148.75;8714632;33;21405;-75
2021/11/04 07:40:27;;;;;;;50.00;24.52;;;;;;;6.43;89.80;99152.72;8718564;33;20581;-76
2021/11/04 07:45:33;;;;;;;46.78;20.92;;;;;;;6.20;89.88;99157.25;8714602;33;20683;-75
2021/11/04 07:50:36;;;;;;;44.90;21.02;;;;;;;6.34;89.91;99157.84;8718917;33;20604;-75
2021/11/04 07:55:40;;;;;;;42.00;18.95;;;;;;;6.38;89.72;99169.09;8672578;33;20252;-75
2021/11/04 08:00:45;;;;;;;41.22;18.63;;;;;;;6.26;89.81;99172.78;8718002;33;20694;-75
2021/11/04 08:05:49;;;;;;;40.63;18.67;;;;;;;6.13;90.13;99172.94;8719624;33;20193;-75
2021/11/04 08:10:53;;;;;;;35.47;16.20;;;;;;;6.15;89.80;99174.50;8694050;33;20178;-75
2021/11/04 08:15:57;;;;;;;42.47;18.15;;;;;;;6.22;89.98;99187.31;8718567;33;20452;-75
2021/11/04 08:21:00;;;;;;;38.90;18.02;;;;;;;6.02;90.26;99184.47;8718840;33;20220;-75
2021/11/04 08:26:05;;;;;;;36.55;19.00;;;;;;;6.24;89.71;99188.06;8718444;33;20251;-74
2021/11/04 08:31:10;;;;;;;40.42;18.90;;;;;;;6.25;89.47;99189.75;8717968;33;20186;-75
2021/11/04 08:36:13;;;;;;;38.13;17.17;;;;;;;6.17;89.82;99188.56;8641963;33;21129;-74
2021/11/04 08:41:17;;;;;;;44.03;18.95;;;;;;;6.29;89.85;99202.72;8660614;33;20137;-75
2021/11/04 08:46:21;;;;;;;42.33;19.02;;;;;;;6.28;89.81;99205.47;8695543;33;20228;-74
2021/11/04 08:51:24;;;;;;;35.22;16.60;;;;;;;6.22;89.80;99206.84;8717460;33;20915;-74
2021/11/04 08:56:27;;;;;;;32.63;14.35;;;;;;;6.06;89.56;99212.59;8716317;33;20221;-75
2021/11/04 09:01:36;;;;;;;30.17;13.95;;;;;;;6.18;89.59;99208.06;8716819;33;20223;-75
2021/11/04 09:06:39;;;;;;;26.33;13.65;;;;;;;6.32;89.56;99221.13;8736529;33;20572;-73
2021/11/04 09:11:42;;;;;;;27.65;13.45;;;;;;;6.14;90.27;99207.47;8758812;33;22876;-73
2021/11/04 09:16:48;;;;;;;27.02;12.80;;;;;;;6.10;90.29;99218.50;8718841;33;20944;-74
2021/11/04 09:21:51;;;;;;;25.95;12.15;;;;;;;6.44;89.96;99227.25;8717446;33;20644;-73
2021/11/04 09:26:54;;;;;;;23.38;11.52;;;;;;;6.59;89.79;99230.50;8716197;33;20190;-74
2021/11/04 09:32:00;;;;;;;24.33;11.68;;;;;;;6.60;89.77;99234.84;8716885;33;20152;-74
2021/11/04 09:37:07;;;;;;;19.85;10.57;;;;;;;6.62;89.92;99232.91;8713313;33;20333;-74
2021/11/04 09:42:10;;;;;;;19.50;10.32;;;;;;;6.51;89.74;99239.13;8691728;33;20198;-75
2021/11/04 09:47:18;;;;;;;16.90;8.77;;;;;;;6.50;89.72;99242.78;8716181;33;20234;-74
2021/11/04 09:52:23;;;;;;;15.60;8.43;;;;;;;5.91;90.99;99249.31;8716668;33;20234;-73
2021/11/04 09:57:28;;;;;;;13.15;8.27;;;;;;;6.35;90.12;99257.38;8716002;33;20427;-74
2021/11/04 10:02:33;;;;;;;15.50;8.05;;;;;;;6.51;89.87;99267.63;8714703;33;20188;-74
2021/11/04 10:07:48;;;;;;;14.25;8.32;;;;;;;6.32;89.75;99266.47;8659178;33;20183;-74
2021/11/04 10:13:04;;;;;;;15.20;7.53;;;;;;;6.31;90.20;99263.94;8714940;33;20183;-74
2021/11/04 10:18:16;;;;;;;15.60;8.05;;;;;;;6.07;90.86;99272.91;8696778;33;20230;-75
2021/11/04 10:23:19;;;;;;;14.27;8.13;;;;;;;6.31;90.50;99278.13;8686244;33;20757;-75
2021/11/04 10:28:27;;;;;;;18.98;9.90;;;;;;;6.20;89.91;99278.13;8690046;33;20220;-74
2021/11/04 10:33:34;;;;;;;18.85;10.35;;;;;;;5.93;90.18;99281.19;8691001;33;20229;-73
2021/11/04 10:38:41;;;;;;;16.25;9.85;;;;;;;5.98;90.45;99278.13;8678632;33;22219;-74
2021/11/04 10:43:45;;;;;;;18.50;9.77;;;;;;;6.13;89.94;99279.59;8715135;33;20179;-73
2021/11/04 10:48:57;;;;;;;18.30;9.40;;;;;;;5.62;90.47;99278.25;8715466;33;20184;-73
2021/11/04 10:54:04;;;;;;;12.55;7.50;;;;;;;5.59;90.66;99289.13;8713484;33;21647;-73
2021/11/04 10:59:13;;;;;;;17.27;9.55;;;;;;;5.68;90.54;99285.78;8715182;33;20188;-74
2021/11/04 11:04:20;;;;;;;18.92;9.45;;;;;;;5.95;90.15;99290.75;8714838;33;20201;-73
2021/11/04 11:09:25;;;;;;;17.08;8.70;;;;;;;5.47;90.75;99296.28;8715540;33;20235;-74
2021/11/04 11:14:30;;;;;;;16.85;8.43;;;;;;;5.70;90.24;99291.84;8714727;33;20136;-74
2021/11/04 11:19:40;;;;;;;15.95;9.48;;;;;;;5.64;90.37;99294.13;8714754;33;20510;-74
2021/11/04 11:24:45;;;;;;;16.63;9.18;;;;;;;5.79;90.47;99303.59;8713457;33;20796;-75
2021/11/04 11:29:50;;;;;;;18.73;10.57;;;;;;;5.93;89.51;99305.16;8717669;33;20223;-74
2021/11/04 11:35:17;;;;;;;18.73;10.15;;;;;;;5.58;90.82;99306.09;8714149;33;20215;-74
2021/11/04 11:40:20;;;;;;;17.45;8.68;;;;;;;5.84;90.43;99308.53;8716852;33;20187;-74
2021/11/04 11:45:23;;;;;;;15.68;9.32;;;;;;;5.95;89.66;99306.75;8718026;33;20559;-73
2021/11/04 11:50:32;;;;;;;16.10;9.32;;;;;;;5.80;90.24;99310.59;8718531;33;20193;-73
2021/11/04 11:55:41;;;;;;;19.75;8.98;;;;;;;6.14;89.01;99297.25;8718608;33;20604;-73
2021/11/04 12:00:50;;;;;;;19.33;10.02;;;;;;;6.27;88.99;99295.31;8718506;33;20282;-74
2021/11/04 12:05:55;;;;;;;17.83;9.48;;;;;;;6.17;88.75;99297.88;8718598;33;20263;-74
2021/11/04 12:10:59;;;;;;;17.38;9.63;;;;;;;6.52;88.27;99306.66;8718595;33;21470;-74
2021/11/04 12:16:14;;;;;;;21.13;10.68;;;;;;;6.60;87.72;99304.22;8719004;33;20610;-74
2021/11/04 12:21:27;;;;;;;21.90;11.30;;;;;;;6.18;87.38;99304.91;8718520;33;20190;-74
2021/11/04 12:26:33;;;;;;;21.02;11.23;;;;;;;6.57;87.06;99308.00;8717284;33;20238;-73
2021/11/04 12:31:40;;;;;;;19.92;10.30;;;;;;;6.52;86.75;99315.50;8691221;33;20448;-74
2021/11/04 12:36:45;;;;;;;21.23;11.10;;;;;;;6.10;86.96;99330.50;8687963;33;20566;-74
2021/11/04 12:41:54;;;;;;;21.55;11.90;;;;;;;5.93;88.12;99323.81;8738200;33;20186;-74
2021/11/04 12:46:57;;;;;;;22.77;11.10;;;;;;;6.00;88.02;99333.00;8715830;33;20188;-74
2021/11/04 12:52:05;;;;;;;21.70;11.88;;;;;;;6.07;87.62;99341.41;8713180;33;20156;-75
2021/11/04 12:57:10;;;;;;;23.25;11.52;;;;;;;5.87;87.79;99345.59;8674266;33;20446;-74
2021/11/04 13:02:18;;;;;;;21.33;11.32;;;;;;;6.01;88.25;99347.22;8716494;33;20179;-75
2021/11/04 13:07:36;;;;;;;25.42;13.40;;;;;;;5.97;87.85;99351.91;8692015;33;20896;-74
2021/11/04 13:12:42;;;;;;;18.77;8.95;;;;;;;5.84;87.33;99367.16;8715195;33;20145;-74
2021/11/04 13:17:51;;;;;;;24.73;13.02;;;;;;;6.01;87.18;99369.38;8711195;33;20751;-75
2021/11/04 13:23:01;;;;;;;29.38;13.30;;;;;;;6.20;87.00;99376.78;8715135;33;20689;-74
2021/11/04 13:28:07;;;;;;;31.00;13.90;;;;;;;5.83;87.07;99379.66;8680224;33;20183;-75
2021/11/04 13:33:12;;;;;;;29.73;14.85;;;;;;;5.88;87.50;99389.97;8691173;33;20697;-75
2021/11/04 13:38:20;;;;;;;36.22;15.60;;;;;;;6.28;86.92;99381.50;8716966;33;20850;-75
2021/11/04 13:43:38;;;;;;;46.33;19.42;;;;;;;5.83;87.58;99395.63;8716275;33;20188;-75
2021/11/04 13:48:44;;;;;;;39.10;17.08;;;;;;;5.73;88.10;99397.31;8690989;33;20625;-75
2021/11/04 13:53:49;;;;;;;37.83;16.42;;;;;;;5.89;87.02;99396.97;8679141;33;20255;-75
2021/11/04 13:58:52;;;;;;;39.72;17.52;;;;;;;6.03;86.80;99412.75;8715686;33;20184;-74
2021/11/04 14:04:07;;;;;;;40.92;18.50;;;;;;;5.98;86.72;99422.94;8715020;33;20747;-74
2021/11/04 14:09:14;;;;;;;42.47;18.88;;;;;;;5.88;87.71;99424.63;8692439;33;20214;-74
2021/11/04 14:14:16;;;;;;;49.53;20.35;;;;;;;5.66;88.55;99436.06;8713788;33;20237;-74
2021/11/04 14:19:19;;;;;;;43.47;20.10;;;;;;;5.48;88.61;99433.78;8714294;33;20604;-74
2021/11/04 14:24:24;;;;;;;52.15;22.10;;;;;;;5.76;88.23;99442.41;8714935;33;20183;-73
2021/11/04 14:29:27;;;;;;;44.38;19.88;;;;;;;5.22;89.98;99448.22;8690383;33;20444;-74
2021/11/04 14:34:30;;;;;;;42.97;19.35;;;;;;;5.25;89.84;99459.47;8714124;33;21823;-75
2021/11/04 14:39:35;;;;;;;48.53;20.42;;;;;;;5.37;89.86;99459.53;8688974;33;20152;-75
2021/11/04 14:44:38;;;;;;;43.25;19.17;;;;;;;5.48;89.34;99468.41;8714154;33;20237;-74
2021/11/04 14:49:43;;;;;;;40.47;18.73;;;;;;;5.69;88.45;99473.97;8743130;33;20171;-74
2021/11/04 14:54:48;;;;;;;45.78;19.83;;;;;;;5.39;88.39;99481.59;8742822;33;20163;-75
2021/11/04 14:59:51;;;;;;;40.60;17.90;;;;;;;5.60;88.35;99490.66;8679981;33;21062;-75
2021/11/04 15:04:54;;;;;;;41.00;18.02;;;;;;;5.58;88.27;99497.06;8715170;33;20747;-75
2021/11/04 15:09:59;;;;;;;39.78;17.25;;;;;;;5.61;88.36;99502.16;8715314;33;20164;-75
2021/11/04 15:15:03;;;;;;;39.55;16.75;;;;;;;5.53;88.31;99509.88;8691826;33;20183;-74
2021/11/04 15:20:08;;;;;;;36.30;16.60;;;;;;;5.67;87.26;99517.69;8719101;33;20155;-75
2021/11/04 15:25:12;;;;;;;33.80;15.52;;;;;;;5.57;87.68;99522.84;8694438;33;20195;-75
2021/11/04 15:30:15;;;;;;;36.60;14.32;;;;;;;5.28;87.76;99528.50;8719853;33;21099;-75
2021/11/04 15:35:18;;;;;;;31.98;14.25;;;;;;;5.26;88.39;99530.41;8717747;33;20178;-75
2021/11/04 15:40:23;;;;;;;30.45;14.63;;;;;;;5.46;87.40;99536.13;8693917;33;20156;-76
2021/11/04 15:45:26;;;;;;;31.73;14.80;;;;;;;5.47;87.31;99548.47;8716567;33;20187;-76
2021/11/04 15:50:29;;;;;;;32.65;15.80;;;;;;;5.52;86.91;99561.47;8717851;33;20195;-75
2021/11/04 15:55:34;;;;;;;33.88;15.85;;;;;;;5.19;86.81;99563.78;8692997;33;21066;-75
2021/11/04 16:00:37;;;;;;;31.55;14.75;;;;;;;5.25;87.67;99566.00;8718497;33;20156;-76
2021/11/04 16:05:41;;;;;;;30.80;15.00;;;;;;;5.20;87.29;99568.13;8718791;33;20171;-75
2021/11/04 16:10:45;;;;;;;26.80;12.27;;;;;;;5.40;86.92;99568.50;8718715;33;20180;-76
2021/11/04 16:15:48;;;;;;;32.70;16.50;;;;;;;5.30;86.85;99586.13;8717785;33;20152;-76
2021/11/04 16:20:51;;;;;;;39.13;17.63;;;;;;;5.33;87.15;99594.75;8718706;33;20663;-75
2021/11/04 16:25:57;;;;;;;33.50;14.90;;;;;;;5.42;86.62;99599.41;8693686;33;20330;-76
2021/11/04 16:31:00;;;;;;;29.90;15.18;;;;;;;5.48;86.57;99604.28;8741648;33;20303;-76
2021/11/04 16:36:04;;;;;;;29.35;14.82;;;;;;;5.38;86.41;99613.91;8718370;33;20155;-76
2021/11/04 16:41:08;;;;;;;30.05;14.70;;;;;;;5.28;86.85;99611.03;8718682;33;20745;-76
2021/11/04 16:46:18;;;;;;;34.85;16.20;;;;;;;5.32;86.74;99622.34;8721929;33;20156;-76
2021/11/04 16:51:22;;;;;;;35.33;15.32;;;;;;;5.14;86.74;99628.97;8695899;33;20700;-76
2021/11/04 16:56:26;;;;;;;34.90;16.02;;;;;;;5.33;87.04;99634.69;8695874;33;20764;-77
2021/11/04 17:01:30;;;;;;;34.72;18.15;;;;;;;5.08;88.43;99645.38;8724308;33;20211;-78
2021/11/04 17:06:33;;;;;;;33.90;16.80;;;;;;;4.98;88.68;99653.09;8723757;33;20228;-77
2021/11/04 17:11:37;;;;;;;39.38;19.13;;;;;;;5.03;88.85;99651.84;8724994;33;20196;-79
2021/11/04 17:16:41;;;;;;;39.97;19.63;;;;;;;4.96;89.33;99665.66;8722447;33;20176;-78
2021/11/04 17:21:44;;;;;;;37.72;18.58;;;;;;;5.26;88.62;99676.84;8719493;33;20240;-76
2021/11/04 17:26:49;;;;;;;43.55;21.10;;;;;;;4.89;89.61;99678.56;8716628;33;20171;-76
2021/11/04 17:31:52;;;;;;;40.50;18.35;;;;;;;5.06;88.76;99686.25;8692633;33;20164;-76
2021/11/04 17:36:56;;;;;;;37.17;18.92;;;;;;;5.19;88.59;99690.75;8690769;33;20234;-76
2021/11/04 17:42:00;;;;;;;41.88;19.10;;;;;;;5.10;88.99;99702.00;8714784;33;20183;-76
2021/11/04 17:47:04;;;;;;;39.10;18.83;;;;;;;5.13;88.82;99705.31;8715196;33;20418;-77
2021/11/04 17:52:09;;;;;;;39.08;19.48;;;;;;;5.17;88.86;99711.28;8691989;33;20417;-76
2021/11/04 17:57:15;;;;;;;41.00;19.13;;;;;;;5.30;88.42;99717.47;8691702;33;20133;-76
2021/11/04 18:02:19;;;;;;;44.47;19.90;;;;;;;5.40;88.25;99729.19;8714624;33;20690;-76
2021/11/04 18:07:22;;;;;;;46.08;19.13;;;;;;;5.25;88.55;99731.09;8715324;33;20249;-76
2021/11/04 18:12:27;;;;;;;42.85;19.10;;;;;;;5.33;88.36;99738.56;8718794;33;20318;-77
2021/11/04 18:17:30;;;;;;;38.13;19.20;;;;;;;5.28;88.56;99752.19;8717874;33;21553;-77
2021/11/04 18:22:34;;;;;;;41.13;18.67;;;;;;;5.45;87.96;99766.13;8718482;33;20210;-76
2021/11/04 18:27:38;;;;;;;46.00;20.70;;;;;;;5.53;87.60;99765.59;8691946;33;20248;-76
2021/11/04 18:32:42;;;;;;;35.03;17.35;;;;;;;5.22;88.36;99770.41;8690965;33;20243;-76
2021/11/04 18:37:45;;;;;;;34.97;18.70;;;;;;;5.35;88.03;99768.59;8690280;33;21894;-77
2021/11/04 18:42:51;;;;;;;37.92;18.42;;;;;;;5.42;87.51;99774.34;8714663;33;20151;-76
2021/11/04 18:47:54;;;;;;;39.80;19.58;;;;;;;5.40;87.99;99782.47;8718367;33;20190;-76
2021/11/04 18:52:58;;;;;;;37.58;18.58;;;;;;;5.36;88.26;99786.28;8745860;33;20148;-76
2021/11/04 18:58:05;;;;;;;36.78;18.98;;;;;;;5.48;87.56;99793.41;8724298;33;20148;-76
2021/11/04 19:03:08;;;;;;;37.13;17.80;;;;;;;5.52;87.62;99794.06;8719594;33;20187;-77
2021/11/04 19:08:11;;;;;;;33.33;15.60;;;;;;;5.47;87.00;99804.19;8724384;33;20725;-76
2021/11/04 19:13:16;;;;;;;34.15;16.77;;;;;;;5.43;87.47;99814.22;8687809;33;20282;-77
2021/11/04 19:18:19;;;;;;;31.77;15.98;;;;;;;5.50;87.30;99814.63;8725162;33;20191;-77
2021/11/04 19:23:22;;;;;;;32.28;16.08;;;;;;;5.63;87.10;99820.81;8723439;33;20468;-77
2021/11/04 19:28:27;;;;;;;32.53;18.20;;;;;;;5.59;87.55;99821.97;8728904;33;20506;-77
2021/11/04 19:33:30;;;;;;;37.00;19.20;;;;;;;5.46;88.27;99832.66;8720049;33;20666;-76
2021/11/04 19:38:33;;;;;;;37.78;17.90;;;;;;;5.39;88.20;99835.81;8724697;33;20660;-76
2021/11/04 19:43:37;;;;;;;35.92;19.38;;;;;;;5.37;87.78;99840.38;8723557;33;21585;-77
2021/11/04 19:48:40;;;;;;;42.20;19.95;;;;;;;5.45;88.20;99841.56;8724482;33;20206;-77
2021/11/04 19:53:44;;;;;;;34.67;19.27;;;;;;;5.49;87.78;99848.41;8699846;33;20215;-76
2021/11/04 19:58:49;;;;;;;34.65;19.17;;;;;;;5.48;87.66;99853.81;8724615;33;20245;-77
2021/11/04 20:03:52;;;;;;;39.92;19.75;;;;;;;5.54;87.70;99866.75;8727638;33;20568;-78
2021/11/04 20:08:55;;;;;;;36.47;19.23;;;;;;;5.61;87.62;99864.50;8748648;33;20190;-77
2021/11/04 20:14:00;;;;;;;35.38;20.23;;;;;;;5.58;87.20;99880.72;8693735;33;20148;-78
2021/11/04 20:19:04;;;;;;;35.13;18.88;;;;;;;5.63;87.12;99889.25;8703283;33;20199;-76
2021/11/04 20:24:08;;;;;;;33.72;18.45;;;;;;;5.71;86.74;99895.75;8725202;33;20522;-78
2021/11/04 20:29:12;;;;;;;33.50;18.33;;;;;;;5.57;86.61;99905.63;8723973;33;20199;-76
2021/11/04 20:34:15;;;;;;;35.53;19.48;;;;;;;5.57;86.82;99911.84;8737828;33;20366;-75
2021/11/04 20:39:18;;;;;;;31.50;18.15;;;;;;;5.50;87.45;99910.53;8726914;33;20639;-76
2021/11/04 20:44:24;;;;;;;31.40;16.83;;;;;;;5.59;86.74;99925.03;8722746;33;20176;-75
2021/11/04 20:49:28;;;;;;;33.83;17.05;;;;;;;5.57;87.34;99927.81;8720146;33;20246;-76
2021/11/04 20:54:31;;;;;;;40.67;20.40;;;;;;;5.61;87.06;99934.63;8718087;33;20213;-76
2021/11/04 20:59:35;;;;;;;37.15;19.73;;;;;;;5.41;87.74;99943.13;8719293;33;20272;-75
2021/11/04 21:04:38;;;;;;;41.78;21.20;;;;;;;5.54;87.46;99938.69;8718736;33;20183;-75
2021/11/04 21:09:42;;;;;;;44.58;22.33;;;;;;;5.43;87.88;99951.84;8718809;33;20698;-75
2021/11/04 21:14:46;;;;;;;44.83;23.60;;;;;;;5.44;87.69;99957.09;8717668;33;20184;-75
2021/11/04 21:19:49;;;;;;;44.05;23.52;;;;;;;5.52;87.43;99955.72;8719020;33;20452;-75
2021/11/04 21:24:54;;;;;;;45.88;23.20;;;;;;;5.60;87.30;99964.06;8718430;33;20196;-75
2021/11/04 21:29:58;;;;;;;51.85;23.70;;;;;;;5.47;87.55;99966.69;8718283;33;20199;-76
2021/11/04 21:35:02;;;;;;;44.17;24.98;;;;;;;5.59;87.16;99970.34;8688609;33;20168;-76
2021/11/04 21:40:08;;;;;;;43.25;23.30;;;;;;;5.55;87.62;99974.19;8716878;33;20213;-75
2021/11/04 21:45:15;;;;;;;48.55;24.27;;;;;;;5.60;87.48;99985.38;8715682;33;20183;-76
2021/11/04 21:50:21;;;;;;;47.63;24.30;;;;;;;5.60;87.27;99988.91;8713673;33;20178;-76
2021/11/04 21:55:25;;;;;;;46.20;21.75;;;;;;;5.45;87.18;99997.91;8716604;33;20667;-76
2021/11/04 22:00:30;;;;;;;50.70;23.13;;;;;;;5.31;87.63;100000.63;8717698;33;20135;-75
2021/11/04 22:05:36;;;;;;;46.13;22.08;;;;;;;5.49;87.43;100005.59;8717212;33;20217;-75
2021/11/04 22:10:40;;;;;;;43.40;22.63;;;;;;;5.50;87.39;100004.63;8719200;33;20144;-74
2021/11/04 22:15:45;;;;;;;46.70;21.77;;;;;;;5.37;87.46;100008.19;8717381;33;20152;-76
2021/11/04 22:20:48;;;;;;;44.78;21.98;;;;;;;5.14;87.88;100023.84;8718118;33;20175;-74
2021/11/04 22:25:55;;;;;;;40.60;21.92;;;;;;;5.37;87.38;100033.00;8716055;33;20140;-74
2021/11/04 22:31:03;;;;;;;44.38;21.23;;;;;;;5.37;87.47;100033.00;8716413;33;20712;-74
2021/11/04 22:36:07;;;;;;;46.33;22.50;;;;;;;5.28;87.75;100042.47;8716131;33;20160;-74
2021/11/04 22:41:11;;;;;;;47.38;22.25;;;;;;;5.18;88.13;100049.31;8708073;33;20191;-74
2021/11/04 22:46:17;;;;;;;44.13;22.10;;;;;;;5.37;87.54;100051.66;8690441;33;20659;-74
2021/11/04 22:51:21;;;;;;;39.55;21.25;;;;;;;5.28;88.10;100058.44;8715039;33;21441;-74
2021/11/04 22:56:24;;;;;;;47.72;22.90;;;;;;;5.33;87.86;100062.63;8714841;33;20240;-74
2021/11/04 23:01:28;;;;;;;44.28;20.27;;;;;;;5.21;88.15;100081.09;8715804;33;20192;-75
2021/11/04 23:06:31;;;;;;;44.67;22.98;;;;;;;5.19;88.31;100082.16;8715447;33;20454;-76
2021/11/04 23:11:34;;;;;;;45.50;21.70;;;;;;;5.44;87.68;100081.44;8714576;33;20472;-76
2021/11/04 23:16:39;;;;;;;40.53;21.45;;;;;;;5.37;87.77;100094.28;8715042;33;20819;-75
2021/11/04 23:21:43;;;;;;;50.72;22.10;;;;;;;5.34;87.76;100106.94;8714972;33;20148;-75
2021/11/04 23:26:47;;;;;;;46.65;21.65;;;;;;;5.30;87.86;100116.09;8713993;33;20210;-74
2021/11/04 23:31:52;;;;;;;46.15;23.55;;;;;;;5.45;87.54;100120.44;8714583;33;20553;-74
2021/11/04 23:36:56;;;;;;;45.13;22.35;;;;;;;5.27;87.79;100131.31;8718251;33;20187;-74